Time;durP1;ratioP1;P1;durP2;ratioP2;P2;SDS_P1;SDS_P2;PMS_P1;PMS_P2;Temp;Humidity;BMP_temperature;BMP_pressure;BME280_temperature;BME280_humidity;BME280_pressure;Samples;Min_cycle;Max_cycle;Signal;HPM_P1;HPM_P2
2024/01/29 00:00:53;;;;;;;4.40;4.10;;;8.30;1.00;;;;;;5094689;28;20197;-69
2024/01/29 00:03:19;;;;;;;4.97;4.57;;;8.20;1.00;;;;;;5094741;28;20264;-68
2024/01/29 00:05:45;;;;;;;5.00;4.60;;;8.20;1.00;;;;;;5094697;28;20559;-68
2024/01/29 00:08:11;;;;;;;5.03;4.60;;;8.10;1.00;;;;;;5094597;28;20179;-69
2024/01/29 00:10:37;;;;;;;4.60;4.20;;;8.00;1.00;;;;;;5094743;28;20220;-69
2024/01/29 00:13:03;;;;;;;5.55;4.93;;;7.90;1.00;;;;;;5094896;28;20174;-68
2024/01/29 00:15:29;;;;;;;4.63;4.30;;;7.90;1.00;;;;;;5094208;28;20264;-69
2024/01/29 00:17:54;;;;;;;4.50;4.10;;;7.70;1.00;;;;;;5094418;28;20618;-69
2024/01/29 00:20:20;;;;;;;4.50;4.20;;;7.70;99.90;;;;;;5094427;28;20224;-68
2024/01/29 00:22:46;;;;;;;4.63;4.20;;;7.60;99.90;;;;;;5094416;28;20638;-69
2024/01/29 00:25:12;;;;;;;4.10;3.80;;;7.60;99.90;;;;;;5094274;28;20634;-69
2024/01/29 00:27:38;;;;;;;4.60;4.20;;;7.50;99.90;;;;;;5094676;28;20208;-68
2024/01/29 00:30:06;;;;;;;4.60;4.20;;;7.50;1.00;;;;;;5094269;28;20686;-68
2024/01/29 00:32:31;;;;;;;4.57;4.27;;;7.40;1.00;;;;;;5094800;28;20169;-68
2024/01/29 00:34:57;;;;;;;4.73;4.40;;;7.40;1.00;;;;;;5092996;28;20181;-69
2024/01/29 00:37:23;;;;;;;5.00;4.60;;;7.30;99.90;;;;;;5094336;28;20177;-68
2024/01/29 00:39:52;;;;;;;4.40;4.10;;;7.20;99.90;;;;;;5094043;28;20185;-68
2024/01/29 00:42:19;;;;;;;4.97;4.50;;;7.20;1.00;;;;;;5093021;28;20551;-68
2024/01/29 00:44:45;;;;;;;4.70;4.37;;;7.10;99.90;;;;;;5094274;28;20181;-68
2024/01/29 00:47:11;;;;;;;5.00;4.60;;;7.00;1.00;;;;;;5094402;28;20256;-68
2024/01/29 00:49:37;;;;;;;4.57;4.17;;;7.00;1.00;;;;;;5094029;28;20201;-68
2024/01/29 00:52:04;;;;;;;4.90;4.50;;;7.20;99.90;;;;;;5093721;28;20616;-68
2024/01/29 00:54:30;;;;;;;5.00;4.60;;;7.30;99.90;;;;;;5094361;28;20199;-68
2024/01/29 00:56:56;;;;;;;4.70;4.30;;;7.30;99.90;;;;;;5094262;28;20165;-69
2024/01/29 00:59:22;;;;;;;5.07;4.67;;;7.30;99.90;;;;;;5092773;28;20192;-69
2024/01/29 01:01:48;;;;;;;4.57;4.17;;;7.20;99.90;;;;;;5092191;28;20266;-69
2024/01/29 01:04:15;;;;;;;4.43;4.13;;;7.10;1.00;;;;;;5094286;28;20171;-69
2024/01/29 01:06:41;;;;;;;4.57;4.17;;;7.00;99.90;;;;;;5093282;28;20177;-68
2024/01/29 01:09:09;;;;;;;4.87;4.47;;;7.00;1.00;;;;;;5093485;28;20708;-68
2024/01/29 01:11:35;;;;;;;4.73;4.43;;;7.10;1.00;;;;;;5093538;28;20192;-68
2024/01/29 01:14:01;;;;;;;4.70;4.30;;;7.10;1.00;;;;;;5093622;28;20188;-68
2024/01/29 01:16:27;;;;;;;4.60;4.30;;;7.10;1.00;;;;;;5093248;28;20642;-69
2024/01/29 01:18:54;;;;;;;4.30;4.03;;;7.20;1.00;;;;;;5092261;28;20192;-69
2024/01/29 01:21:20;;;;;;;4.63;4.33;;;7.20;1.00;;;;;;5093334;28;20193;-68
2024/01/29 01:23:46;;;;;;;4.37;4.17;;;7.10;99.90;;;;;;5092143;28;20191;-68
2024/01/29 01:26:11;;;;;;;4.80;4.50;;;7.10;1.00;;;;;;5093524;28;20702;-68
2024/01/29 01:28:37;;;;;;;4.77;4.40;;;7.00;99.90;;;;;;5093755;28;20180;-68
2024/01/29 01:31:04;;;;;;;4.57;4.17;;;6.90;1.00;;;;;;5093107;28;20273;-68
2024/01/29 01:33:29;;;;;;;4.63;4.30;;;6.80;99.90;;;;;;5093691;28;20181;-69
2024/01/29 01:35:55;;;;;;;4.60;4.20;;;6.70;99.90;;;;;;5093355;28;20177;-69
2024/01/29 01:38:21;;;;;;;5.37;4.87;;;6.70;1.00;;;;;;5093523;28;20177;-68
2024/01/29 01:40:47;;;;;;;5.07;4.67;;;6.60;1.00;;;;;;5093169;28;20743;-68
2024/01/29 01:43:21;;;;;;;4.63;4.33;;;6.60;68.40;;;;;;5093216;28;20230;-68
2024/01/29 01:46:22;;;;;;;4.70;4.30;;;6.70;64.80;;;;;;5093147;28;20187;-68
2024/01/29 01:48:53;;;;;;;5.10;4.70;;;6.80;1.00;;;;;;5093114;28;20173;-68
2024/01/29 01:51:23;;;;;;;5.20;4.70;;;7.10;1.00;;;;;;5093078;28;20600;-68
2024/01/29 01:53:54;;;;;;;4.73;4.43;;;7.40;1.00;;;;;;5093209;28;20183;-69
2024/01/29 01:56:20;;;;;;;4.90;4.50;;;7.50;99.90;;;;;;5093118;28;20732;-68
2024/01/29 01:58:46;;;;;;;4.77;4.47;;;7.50;1.00;;;;;;5093161;28;20247;-69
2024/01/29 02:01:15;;;;;;;5.20;4.70;;;7.40;1.00;;;;;;5092763;28;20216;-68
2024/01/29 02:03:43;;;;;;;5.43;4.90;;;7.30;45.90;;;;;;5092856;28;20228;-69
2024/01/29 02:06:12;;;;;;;5.10;4.70;;;7.20;1.00;;;;;;5093280;28;20249;-68
2024/01/29 02:08:39;;;;;;;4.80;4.40;;;7.30;99.90;;;;;;5093054;28;20177;-69
2024/01/29 02:11:05;;;;;;;6.67;4.70;;;7.40;1.00;;;;;;5092930;28;20195;-69
2024/01/29 02:13:31;;;;;;;5.70;5.10;;;7.60;99.90;;;;;;5093010;28;20181;-68
2024/01/29 02:15:57;;;;;;;5.23;4.73;;;7.90;99.90;;;;;;5091492;28;20181;-69
2024/01/29 02:18:22;;;;;;;5.17;4.70;;;8.20;53.70;;;;;;5093678;28;20173;-68
2024/01/29 02:20:49;;;;;;;5.00;4.50;;;8.30;1.00;;;;;;5096631;28;20224;-69
2024/01/29 02:23:14;;;;;;;4.63;4.33;;;8.60;99.90;;;;;;5096625;28;20215;-68
2024/01/29 02:25:40;;;;;;;4.40;4.10;;;8.70;99.90;;;;;;5096507;28;20181;-69
2024/01/29 02:28:06;;;;;;;4.80;4.40;;;8.80;22.30;;;;;;5095516;28;20317;-69
2024/01/29 02:30:31;;;;;;;5.10;4.60;;;8.80;1.00;;;;;;5096459;28;20244;-69
2024/01/29 02:32:57;;;;;;;5.13;4.60;;;8.90;1.00;;;;;;5096635;28;20177;-69
2024/01/29 02:35:23;;;;;;;5.13;4.67;;;8.90;1.00;;;;;;5096517;28;20658;-69
2024/01/29 02:37:49;;;;;;;5.50;4.90;;;9.00;1.00;;;;;;5096702;28;20170;-69
2024/01/29 02:40:15;;;;;;;5.30;4.90;;;9.00;1.00;;;;;;5096247;28;20651;-68
2024/01/29 02:42:41;;;;;;;5.13;4.73;;;9.00;1.00;;;;;;5096289;28;20634;-68
2024/01/29 02:45:07;;;;;;;5.23;4.73;;;8.90;1.00;;;;;;5095957;28;20189;-69
2024/01/29 02:47:33;;;;;;;5.40;4.87;;;8.80;1.00;;;;;;5094877;28;20673;-69
2024/01/29 02:49:58;;;;;;;5.10;4.70;;;8.80;1.00;;;;;;5096196;28;20244;-69
2024/01/29 02:52:24;;;;;;;5.17;4.70;;;8.80;1.00;;;;;;5096366;28;20267;-68
2024/01/29 02:54:50;;;;;;;5.30;4.87;;;8.80;1.00;;;;;;5095995;28;20173;-68
2024/01/29 02:57:16;;;;;;;4.90;4.60;;;8.80;1.00;;;;;;5096083;28;20180;-68
2024/01/29 02:59:41;;;;;;;5.07;4.67;;;8.90;1.00;;;;;;5095826;28;20181;-68
2024/01/29 03:02:07;;;;;;;5.10;4.60;;;8.80;1.00;;;;;;5095546;28;20189;-68
2024/01/29 03:04:33;;;;;;;4.93;4.53;;;8.80;1.00;;;;;;5096423;28;20161;-69
2024/01/29 03:06:59;;;;;;;5.20;4.80;;;8.80;1.00;;;;;;5095794;28;20173;-69
2024/01/29 03:09:25;;;;;;;7.37;5.20;;;8.70;1.00;;;;;;5094464;28;20205;-68
2024/01/29 03:11:50;;;;;;;5.20;4.70;;;8.60;1.00;;;;;;5095992;28;20204;-68
2024/01/29 03:14:16;;;;;;;5.13;4.77;;;8.70;1.00;;;;;;5095958;28;20185;-68
2024/01/29 03:16:42;;;;;;;5.60;5.10;;;8.70;1.00;;;;;;5095630;28;20172;-69
2024/01/29 03:19:08;;;;;;;5.07;4.67;;;8.60;1.00;;;;;;5095757;28;20263;-68
2024/01/29 03:21:34;;;;;;;5.53;5.03;;;8.60;1.00;;;;;;5095549;28;20197;-68
2024/01/29 03:23:59;;;;;;;5.40;4.93;;;8.60;17.50;;;;;;5095567;28;20185;-68
2024/01/29 03:26:25;;;;;;;5.20;4.70;;;8.60;95.40;;;;;;5094339;28;20238;-68
2024/01/29 03:28:51;;;;;;;5.20;4.70;;;8.60;99.90;;;;;;5095264;28;20261;-68
2024/01/29 03:31:17;;;;;;;5.43;4.90;;;8.60;99.90;;;;;;5095185;28;20235;-68
2024/01/29 03:33:43;;;;;;;5.03;4.67;;;8.60;99.90;;;;;;5095844;28;20179;-68
2024/01/29 03:36:08;;;;;;;6.30;4.90;;;8.50;99.90;;;;;;5095884;28;20181;-68
2024/01/29 03:38:34;;;;;;;6.23;5.23;;;8.40;99.90;;;;;;5099616;28;20184;-68
2024/01/29 03:41:00;;;;;;;6.57;5.10;;;8.40;1.00;;;;;;5102508;28;20201;-68
2024/01/29 03:43:26;;;;;;;5.73;5.07;;;8.30;1.00;;;;;;5101530;28;20207;-68
2024/01/29 03:45:55;;;;;;;6.63;4.90;;;8.30;1.00;;;;;;5096126;28;20177;-68
2024/01/29 03:48:21;;;;;;;6.87;4.83;;;8.30;40.70;;;;;;5095593;28;20593;-68
2024/01/29 03:50:47;;;;;;;5.70;5.20;;;8.20;99.90;;;;;;5095270;28;20334;-68
2024/01/29 03:53:13;;;;;;;5.40;5.00;;;8.20;1.00;;;;;;5095405;28;20263;-68
2024/01/29 03:55:39;;;;;;;5.50;4.70;;;8.10;1.00;;;;;;5095020;28;20173;-68
2024/01/29 03:58:04;;;;;;;5.73;4.93;;;8.00;2.00;;;;;;5095382;28;20174;-68
2024/01/29 04:00:30;;;;;;;5.53;5.03;;;7.90;1.00;;;;;;5094583;28;20199;-68
2024/01/29 04:02:57;;;;;;;5.40;4.80;;;7.90;99.90;;;;;;5093380;28;20607;-68
2024/01/29 04:05:22;;;;;;;5.00;4.60;;;7.80;1.00;;;;;;5094950;28;20264;-68
2024/01/29 04:07:49;;;;;;;5.43;5.03;;;7.60;1.00;;;;;;5094879;28;20602;-70
2024/01/29 04:10:18;;;;;;;5.40;4.90;;;7.50;1.00;;;;;;5095087;28;20291;-68
2024/01/29 04:12:44;;;;;;;5.63;5.13;;;7.30;1.00;;;;;;5094636;28;20179;-68
2024/01/29 04:15:10;;;;;;;5.63;5.10;;;7.20;1.00;;;;;;5094209;28;20263;-68
2024/01/29 04:17:36;;;;;;;6.00;5.37;;;7.00;99.90;;;;;;5094418;28;20177;-68
2024/01/29 04:20:06;;;;;;;5.03;4.70;;;6.90;1.00;;;;;;5094534;28;20729;-68
2024/01/29 04:22:32;;;;;;;5.60;4.93;;;6.90;1.00;;;;;;5094529;28;20695;-68
2024/01/29 04:25:04;;;;;;;5.50;5.00;;;6.90;99.90;;;;;;5093006;28;20196;-68
2024/01/29 04:27:30;;;;;;;4.70;4.27;;;6.90;1.00;;;;;;5094716;28;20215;-68
2024/01/29 04:29:56;;;;;;;6.23;5.63;;;6.80;99.90;;;;;;5092664;28;20244;-68
2024/01/29 04:32:22;;;;;;;5.40;5.00;;;6.70;1.00;;;;;;5094090;28;20193;-68
2024/01/29 04:34:48;;;;;;;6.00;5.50;;;6.50;1.00;;;;;;5094111;28;20596;-68
2024/01/29 04:37:14;;;;;;;6.60;5.20;;;6.50;99.90;;;;;;5094337;28;20634;-68
2024/01/29 04:39:40;;;;;;;6.17;5.43;;;6.40;99.90;;;;;;5094051;28;20216;-68
2024/01/29 04:42:07;;;;;;;5.57;5.07;;;6.40;1.00;;;;;;5094045;28;20181;-68
2024/01/29 04:44:33;;;;;;;5.90;5.40;;;6.20;1.00;;;;;;5092660;28;20330;-68
2024/01/29 04:46:59;;;;;;;5.77;5.37;;;6.20;99.90;;;;;;5093865;28;20218;-68
2024/01/29 04:49:25;;;;;;;6.10;5.50;;;6.00;99.90;;;;;;5093912;28;20208;-68
2024/01/29 04:51:51;;;;;;;5.50;5.00;;;5.90;99.90;;;;;;5093850;28;20206;-68
2024/01/29 04:54:17;;;;;;;5.50;5.00;;;5.90;1.00;;;;;;5092630;28;20210;-68
2024/01/29 04:56:43;;;;;;;6.63;5.43;;;5.80;1.00;;;;;;5093748;28;20227;-68
2024/01/29 04:59:08;;;;;;;6.37;5.40;;;5.70;1.00;;;;;;5093870;28;20619;-68
2024/01/29 05:01:35;;;;;;;6.00;5.40;;;5.60;1.00;;;;;;5093219;28;20204;-68
2024/01/29 05:04:00;;;;;;;6.47;5.87;;;5.60;1.00;;;;;;5092479;28;20185;-68
2024/01/29 05:06:26;;;;;;;6.10;5.50;;;5.50;60.60;;;;;;5093943;28;20226;-69
2024/01/29 05:08:52;;;;;;;5.83;5.17;;;5.40;99.90;;;;;;5093584;28;20549;-68
2024/01/29 05:11:18;;;;;;;5.60;5.07;;;5.30;99.90;;;;;;5093823;28;20210;-68
2024/01/29 05:13:43;;;;;;;5.77;5.27;;;5.30;99.90;;;;;;5093478;28;20181;-68
2024/01/29 05:16:15;;;;;;;5.87;5.27;;;5.30;99.90;;;;;;5093374;28;20634;-68
2024/01/29 05:18:41;;;;;;;6.40;5.83;;;5.30;99.90;;;;;;5093647;28;20177;-68
2024/01/29 05:21:07;;;;;;;6.13;5.53;;;5.20;99.90;;;;;;5093484;28;20276;-68
2024/01/29 05:23:33;;;;;;;6.07;5.57;;;5.10;99.90;;;;;;5093571;28;20257;-68
2024/01/29 05:25:59;;;;;;;5.80;5.30;;;5.10;99.90;;;;;;5093705;28;20202;-68
2024/01/29 05:28:25;;;;;;;5.73;5.33;;;5.00;99.90;;;;;;5093610;28;20301;-68
2024/01/29 05:30:51;;;;;;;6.27;5.67;;;4.90;99.90;;;;;;5091817;28;20213;-68
2024/01/29 05:33:17;;;;;;;6.03;5.53;;;4.80;99.90;;;;;;5092347;28;20636;-68
2024/01/29 05:35:43;;;;;;;6.20;5.70;;;4.80;99.90;;;;;;5093549;28;20190;-68
2024/01/29 05:38:09;;;;;;;6.40;5.90;;;4.70;1.00;;;;;;5093417;28;20251;-68
2024/01/29 05:40:35;;;;;;;6.03;5.53;;;4.70;1.00;;;;;;5093575;28;20201;-68
2024/01/29 05:43:00;;;;;;;6.17;5.43;;;4.60;1.00;;;;;;5093771;28;20181;-68
2024/01/29 05:45:26;;;;;;;6.43;5.73;;;4.60;1.00;;;;;;5092966;28;20557;-67
2024/01/29 05:47:52;;;;;;;6.13;5.63;;;4.50;1.00;;;;;;5093266;28;20184;-68
2024/01/29 05:50:18;;;;;;;6.50;5.90;;;4.40;1.00;;;;;;5093048;28;20814;-68
2024/01/29 05:52:44;;;;;;;6.40;5.90;;;4.40;1.00;;;;;;5094650;28;20196;-68
2024/01/29 05:55:10;;;;;;;6.50;5.90;;;4.40;1.00;;;;;;5097762;28;20173;-68
2024/01/29 05:57:36;;;;;;;6.57;5.97;;;4.40;1.00;;;;;;5097303;28;20543;-68
2024/01/29 06:00:06;;;;;;;6.53;5.93;;;4.30;1.00;;;;;;5097225;28;20201;-68
2024/01/29 06:02:32;;;;;;;6.97;6.27;;;4.30;1.00;;;;;;5096792;28;20191;-68
2024/01/29 06:04:58;;;;;;;7.00;6.30;;;4.30;1.00;;;;;;5095911;28;20712;-68
2024/01/29 06:07:24;;;;;;;6.60;6.00;;;4.30;1.00;;;;;;5096966;28;20256;-70
2024/01/29 06:09:49;;;;;;;7.43;6.47;;;4.30;1.00;;;;;;5096838;28;20204;-70
2024/01/29 06:12:15;;;;;;;6.87;6.17;;;4.30;1.00;;;;;;5095452;28;20180;-70
2024/01/29 06:14:41;;;;;;;6.40;5.80;;;4.30;1.00;;;;;;5095486;28;20189;-70
2024/01/29 06:17:07;;;;;;;6.70;6.00;;;4.20;1.00;;;;;;5096469;28;20185;-69
2024/01/29 06:19:32;;;;;;;8.83;6.53;;;4.20;1.00;;;;;;5096824;28;20177;-70
2024/01/29 06:21:58;;;;;;;7.63;6.43;;;4.10;1.00;;;;;;5096474;28;20522;-70
2024/01/29 06:24:24;;;;;;;7.63;6.83;;;4.10;1.00;;;;;;5096542;28;20606;-69
2024/01/29 06:26:50;;;;;;;6.83;6.27;;;4.00;1.00;;;;;;5095288;28;20268;-70
2024/01/29 06:29:16;;;;;;;6.90;6.20;;;3.90;1.00;;;;;;5097041;28;20205;-69
2024/01/29 06:31:42;;;;;;;7.33;6.63;;;3.90;1.00;;;;;;5095623;28;20196;-70
2024/01/29 06:34:08;;;;;;;9.37;6.80;;;3.90;1.00;;;;;;5097405;28;20165;-70
2024/01/29 06:36:34;;;;;;;9.37;6.70;;;3.90;1.00;;;;;;5095684;28;20222;-69
2024/01/29 06:38:59;;;;;;;7.70;7.00;;;3.90;1.00;;;;;;5097434;28;20574;-70
2024/01/29 06:41:27;;;;;;;7.97;6.40;;;3.80;1.00;;;;;;5096823;28;20199;-70
2024/01/29 06:43:55;;;;;;;9.20;6.83;;;3.70;1.00;;;;;;5096750;28;20181;-69
2024/01/29 06:46:22;;;;;;;8.80;7.27;;;3.70;1.00;;;;;;5096901;28;20252;-70
2024/01/29 06:48:47;;;;;;;8.10;7.30;;;3.70;1.00;;;;;;5097209;28;20212;-69
2024/01/29 06:51:15;;;;;;;8.97;6.97;;;3.70;1.00;;;;;;5096610;28;20214;-70
2024/01/29 06:53:41;;;;;;;7.70;7.00;;;3.60;1.00;;;;;;5096672;28;20307;-70
2024/01/29 06:56:07;;;;;;;8.83;7.07;;;3.60;1.00;;;;;;5096303;28;20542;-69
2024/01/29 06:58:36;;;;;;;9.70;6.23;;;3.60;1.00;;;;;;5096701;28;20173;-69
2024/01/29 07:01:06;;;;;;;8.90;7.00;;;3.50;1.00;;;;;;5096270;28;20193;-69
2024/01/29 07:03:32;;;;;;;7.40;6.63;;;3.50;1.00;;;;;;5095811;28;20276;-69
2024/01/29 07:05:58;;;;;;;7.60;6.80;;;3.40;1.00;;;;;;5094419;28;20189;-69
2024/01/29 07:08:25;;;;;;;7.57;6.87;;;3.50;1.00;;;;;;5096024;28;20680;-69
2024/01/29 07:10:51;;;;;;;9.50;6.83;;;3.50;1.00;;;;;;5095497;28;20262;-70
2024/01/29 07:13:17;;;;;;;8.77;6.50;;;3.50;1.00;;;;;;5096553;28;20578;-69
2024/01/29 07:15:43;;;;;;;8.83;7.50;;;3.50;1.00;;;;;;5096221;28;20181;-70
2024/01/29 07:18:09;;;;;;;8.50;7.37;;;3.50;1.00;;;;;;5094841;28;20181;-69
2024/01/29 07:20:39;;;;;;;8.33;7.53;;;3.50;1.00;;;;;;5096078;28;20200;-69
2024/01/29 07:23:06;;;;;;;8.53;7.63;;;3.50;1.00;;;;;;5096307;28;20165;-70
2024/01/29 07:25:31;;;;;;;7.97;7.17;;;3.50;1.00;;;;;;5096491;28;20169;-70
2024/01/29 07:27:59;;;;;;;9.53;7.50;;;3.40;44.70;;;;;;5095987;28;20238;-70
2024/01/29 07:30:26;;;;;;;9.63;7.97;;;3.50;1.00;;;;;;5096193;28;20273;-70
2024/01/29 07:32:52;;;;;;;9.47;7.63;;;3.40;1.00;;;;;;5095241;28;20173;-70
2024/01/29 07:35:17;;;;;;;8.80;7.97;;;3.40;13.90;;;;;;5095419;28;20173;-70
2024/01/29 07:37:43;;;;;;;9.20;8.13;;;3.30;7.50;;;;;;5095495;28;20239;-70
2024/01/29 07:40:09;;;;;;;10.83;8.27;;;3.40;38.40;;;;;;5095554;28;20219;-70
2024/01/29 07:42:36;;;;;;;10.57;7.60;;;3.40;96.70;;;;;;5095780;28;20184;-70
2024/01/29 07:45:02;;;;;;;8.23;7.50;;;3.40;16.30;;;;;;5095743;28;20192;-70
2024/01/29 07:47:27;;;;;;;10.80;7.73;;;3.40;22.60;;;;;;5095541;28;20186;-70
2024/01/29 07:49:54;;;;;;;8.70;7.90;;;3.40;56.20;;;;;;5095925;28;20201;-70
2024/01/29 07:52:19;;;;;;;9.47;7.77;;;3.40;58.40;;;;;;5094807;28;20204;-70
2024/01/29 07:54:45;;;;;;;13.40;8.33;;;3.40;99.90;;;;;;5094038;28;20209;-70
2024/01/29 07:57:11;;;;;;;8.80;7.90;;;3.50;91.80;;;;;;5094297;28;20211;-70
2024/01/29 07:59:37;;;;;;;12.50;8.27;;;3.50;87.10;;;;;;5095473;28;20190;-70
2024/01/29 08:02:03;;;;;;;12.37;8.43;;;3.50;84.20;;;;;;5095201;28;20215;-70
2024/01/29 08:04:29;;;;;;;9.03;7.80;;;3.50;91.20;;;;;;5094062;28;20185;-70
2024/01/29 08:06:54;;;;;;;10.53;8.40;;;3.50;99.90;;;;;;5094211;28;20177;-70
2024/01/29 08:09:20;;;;;;;8.53;7.83;;;3.50;83.80;;;;;;5095292;28;20666;-70
2024/01/29 08:11:46;;;;;;;10.53;8.10;;;3.50;99.00;;;;;;5093862;28;20197;-70
2024/01/29 08:14:12;;;;;;;13.40;8.00;;;3.60;98.00;;;;;;5095284;28;20260;-70
2024/01/29 08:16:39;;;;;;;9.27;8.07;;;3.60;99.90;;;;;;5094712;28;20204;-70
2024/01/29 08:19:05;;;;;;;8.83;7.93;;;3.60;95.40;;;;;;5093849;28;20264;-70
2024/01/29 08:21:31;;;;;;;11.27;8.07;;;3.60;99.90;;;;;;5094855;28;20224;-70
2024/01/29 08:23:57;;;;;;;14.87;7.87;;;3.60;99.90;;;;;;5093674;28;20185;-70
2024/01/29 08:26:23;;;;;;;9.60;7.60;;;3.50;99.90;;;;;;5093495;28;20230;-70
2024/01/29 08:28:48;;;;;;;8.27;7.47;;;3.50;99.90;;;;;;5094723;28;20223;-70
2024/01/29 08:31:14;;;;;;;10.20;7.60;;;3.50;99.90;;;;;;5093796;28;20213;-70
2024/01/29 08:33:44;;;;;;;8.77;7.70;;;3.60;99.90;;;;;;5094181;28;20665;-70
2024/01/29 08:36:11;;;;;;;10.60;7.57;;;3.70;99.90;;;;;;5093593;28;20181;-70
2024/01/29 08:38:36;;;;;;;8.67;7.80;;;3.80;99.90;;;;;;5094790;28;20176;-70
2024/01/29 08:41:03;;;;;;;7.97;7.20;;;3.80;99.90;;;;;;5094751;28;20561;-70
2024/01/29 08:43:29;;;;;;;8.20;7.40;;;3.90;99.90;;;;;;5094744;28;20184;-70
2024/01/29 08:45:54;;;;;;;9.93;8.07;;;4.00;99.90;;;;;;5094118;28;20169;-70
2024/01/29 08:48:20;;;;;;;8.50;7.53;;;4.00;99.90;;;;;;5092342;28;20183;-70
2024/01/29 08:50:46;;;;;;;9.30;8.00;;;4.10;99.90;;;;;;5093629;28;20209;-70
2024/01/29 08:53:13;;;;;;;8.50;7.70;;;4.20;99.90;;;;;;5092674;28;20204;-70
2024/01/29 08:55:39;;;;;;;8.40;7.60;;;4.30;99.90;;;;;;5093674;28;20589;-70
2024/01/29 08:58:04;;;;;;;8.90;8.00;;;4.30;99.90;;;;;;5092477;28;20167;-70
2024/01/29 09:00:32;;;;;;;9.10;7.80;;;4.50;99.90;;;;;;5093588;28;20197;-70
2024/01/29 09:02:58;;;;;;;8.63;7.67;;;4.80;95.10;;;;;;5093361;28;20211;-70
2024/01/29 09:05:23;;;;;;;9.23;8.33;;;5.00;15.80;;;;;;5093621;28;20181;-70
2024/01/29 09:07:49;;;;;;;10.30;7.77;;;5.10;1.00;;;;;;5092416;28;20184;-70
2024/01/29 09:10:15;;;;;;;8.87;7.97;;;5.30;1.00;;;;;;5093741;28;20213;-70
2024/01/29 09:12:42;;;;;;;9.73;7.87;;;5.60;1.00;;;;;;5092184;28;20184;-70
2024/01/29 09:15:09;;;;;;;9.83;7.50;;;5.80;1.00;;;;;;5093815;28;20249;-70
2024/01/29 09:17:35;;;;;;;10.40;8.13;;;6.10;1.00;;;;;;5092589;28;20192;-70
2024/01/29 09:20:06;;;;;;;8.57;7.03;;;6.40;99.90;;;;;;5094997;28;20537;-70
2024/01/29 09:22:32;;;;;;;8.03;7.23;;;6.60;99.90;;;;;;5093769;28;20180;-70
2024/01/29 09:24:58;;;;;;;8.47;7.67;;;6.70;99.90;;;;;;5094461;28;20173;-70
2024/01/29 09:27:23;;;;;;;8.43;7.10;;;6.80;99.90;;;;;;5092134;28;20185;-69
2024/01/29 09:29:49;;;;;;;7.83;7.00;;;7.00;1.00;;;;;;5092404;28;20205;-70
2024/01/29 09:32:15;;;;;;;10.43;7.40;;;7.10;1.00;;;;;;5093359;28;20181;-69
2024/01/29 09:34:41;;;;;;;8.67;7.50;;;7.20;1.00;;;;;;5093256;28;20177;-70
2024/01/29 09:37:06;;;;;;;7.80;7.00;;;7.30;1.00;;;;;;5093235;28;20205;-70
2024/01/29 09:39:32;;;;;;;8.13;7.20;;;7.30;97.50;;;;;;5093257;28;20184;-70
2024/01/29 09:42:05;;;;;;;8.07;7.27;;;7.30;99.90;;;;;;5093227;28;20208;-70
2024/01/29 09:44:38;;;;;;;7.77;7.07;;;7.40;99.90;;;;;;5093080;28;20211;-69
2024/01/29 09:47:05;;;;;;;9.93;7.47;;;7.50;99.90;;;;;;5093210;28;20699;-70
2024/01/29 09:49:34;;;;;;;8.80;7.87;;;7.70;99.90;;;;;;5093354;28;20288;-70
2024/01/29 09:52:06;;;;;;;9.17;7.80;;;7.70;99.90;;;;;;5091675;28;20575;-70
2024/01/29 09:54:33;;;;;;;11.77;7.53;;;7.90;99.90;;;;;;5093765;28;20552;-70
2024/01/29 09:56:59;;;;;;;10.47;7.40;;;8.20;1.00;;;;;;5092917;28;20546;-70
2024/01/29 09:59:25;;;;;;;10.13;7.20;;;8.40;1.00;;;;;;5092943;28;20296;-70
2024/01/29 10:01:51;;;;;;;7.53;6.83;;;8.50;12.50;;;;;;5092597;28;20697;-70
2024/01/29 10:04:19;;;;;;;7.30;6.60;;;8.70;1.00;;;;;;5093238;28;20272;-70
2024/01/29 10:06:44;;;;;;;10.97;7.27;;;8.90;1.00;;;;;;5093109;28;20229;-70
2024/01/29 10:09:11;;;;;;;7.20;6.60;;;9.00;1.00;;;;;;5091564;28;20718;-70
2024/01/29 10:11:39;;;;;;;7.20;6.47;;;9.20;99.90;;;;;;5092854;28;20211;-69
2024/01/29 10:14:06;;;;;;;8.53;6.30;;;9.30;1.00;;;;;;5091533;28;20187;-70
2024/01/29 10:16:32;;;;;;;8.27;7.00;;;9.50;1.00;;;;;;5092498;28;20542;-69
2024/01/29 10:19:02;;;;;;;7.43;6.73;;;9.60;1.00;;;;;;5092767;28;20181;-69
2024/01/29 10:21:32;;;;;;;7.23;6.53;;;9.70;1.00;;;;;;5092740;28;20309;-69
2024/01/29 10:23:58;;;;;;;7.55;6.78;;;9.90;99.90;;;;;;5091511;28;20180;-69
2024/01/29 10:26:25;;;;;;;10.10;7.40;;;10.10;1.00;;;;;;5092987;28;20207;-69
2024/01/29 10:29:02;;;;;;;7.22;6.53;;;10.30;1.00;;;;;;5093002;28;20256;-69
2024/01/29 10:31:29;;;;;;;10.85;6.65;;;10.40;1.00;;;;;;5091086;28;20212;-70
2024/01/29 10:33:55;;;;;;;7.80;6.60;;;10.60;1.10;;;;;;5092614;28;20184;-69
2024/01/29 10:36:22;;;;;;;6.95;6.15;;;10.70;99.90;;;;;;5092641;28;20605;-70
2024/01/29 10:38:49;;;;;;;6.80;6.20;;;10.80;1.00;;;;;;5093713;28;20384;-69
2024/01/29 10:41:17;;;;;;;7.05;6.25;;;10.90;99.90;;;;;;5096460;28;20738;-69
2024/01/29 10:43:47;;;;;;;6.75;6.15;;;11.00;1.00;;;;;;5096248;28;20556;-70
2024/01/29 10:46:19;;;;;;;6.22;5.72;;;11.10;99.90;;;;;;5094853;28;20173;-70
2024/01/29 10:48:46;;;;;;;6.15;5.65;;;11.20;61.70;;;;;;5096336;28;20252;-69
2024/01/29 10:51:14;;;;;;;6.45;5.82;;;11.30;1.00;;;;;;5096090;28;20284;-69
2024/01/29 10:53:44;;;;;;;8.57;6.05;;;11.40;99.90;;;;;;5096456;28;20173;-69
2024/01/29 10:56:12;;;;;;;6.70;6.00;;;11.50;1.00;;;;;;5096191;28;20168;-69
2024/01/29 10:58:38;;;;;;;8.60;6.20;;;11.60;1.00;;;;;;5095867;28;20626;-69
2024/01/29 11:01:05;;;;;;;6.35;5.50;;;11.80;1.00;;;;;;5096254;28;20628;-69
2024/01/29 11:03:34;;;;;;;7.03;5.70;;;11.90;99.90;;;;;;5095408;28;20212;-69
2024/01/29 11:06:19;;;;;;;6.03;5.53;;;11.90;99.90;;;;;;5095784;28;20232;-70
2024/01/29 11:08:50;;;;;;;6.03;5.50;;;12.00;1.00;;;;;;5095754;28;20153;-69
2024/01/29 11:11:17;;;;;;;6.20;5.60;;;12.10;1.00;;;;;;5095604;28;20677;-70
2024/01/29 11:13:43;;;;;;;6.20;5.60;;;12.30;1.00;;;;;;5095498;28;20181;-69
2024/01/29 11:16:09;;;;;;;6.78;6.15;;;12.30;1.00;;;;;;5095514;28;20206;-70
2024/01/29 11:18:36;;;;;;;11.70;5.93;;;12.40;1.00;;;;;;5095222;28;20723;-70
2024/01/29 11:21:03;;;;;;;6.72;5.72;;;12.40;99.90;;;;;;5094176;28;20325;-69
2024/01/29 11:23:29;;;;;;;6.32;5.68;;;12.50;99.90;;;;;;5095955;28;20188;-69
2024/01/29 11:26:03;;;;;;;7.05;5.78;;;12.60;1.00;;;;;;5095959;28;20173;-70
2024/01/29 11:28:29;;;;;;;6.25;5.63;;;12.60;99.90;;;;;;5095385;28;20169;-69
2024/01/29 11:30:55;;;;;;;6.78;6.13;;;12.70;1.00;;;;;;5095511;28;20262;-69
2024/01/29 11:33:22;;;;;;;6.68;5.90;;;12.80;43.20;;;;;;5095007;28;20169;-69
2024/01/29 11:35:55;;;;;;;6.35;5.65;;;13.00;99.90;;;;;;5095144;28;20169;-69
2024/01/29 11:38:23;;;;;;;8.68;6.45;;;13.00;99.90;;;;;;5095686;28;20185;-70
2024/01/29 11:40:49;;;;;;;7.25;5.90;;;13.00;99.90;;;;;;5095262;28;20670;-70
2024/01/29 11:43:21;;;;;;;6.45;5.75;;;13.10;1.00;;;;;;5095200;28;20584;-69
2024/01/29 11:45:47;;;;;;;8.05;5.82;;;13.30;1.00;;;;;;5093634;28;20557;-70
2024/01/29 11:48:15;;;;;;;6.82;6.13;;;13.30;99.90;;;;;;5094715;28;20176;-69
2024/01/29 11:50:45;;;;;;;9.82;6.10;;;13.40;1.00;;;;;;5094421;28;20585;-69
2024/01/29 11:53:14;;;;;;;6.20;5.60;;;13.50;99.90;;;;;;5093561;28;20169;-69
2024/01/29 11:55:40;;;;;;;6.35;5.57;;;13.60;1.00;;;;;;5094803;28;20192;-69
2024/01/29 11:58:17;;;;;;;8.15;5.88;;;13.80;99.90;;;;;;5094697;28;20250;-69
2024/01/29 12:00:44;;;;;;;8.82;5.70;;;13.80;1.00;;;;;;5094771;28;20330;-69
2024/01/29 12:03:15;;;;;;;8.65;5.22;;;13.90;1.00;;;;;;5094363;28;20199;-70
2024/01/29 12:05:41;;;;;;;6.72;6.00;;;14.00;1.00;;;;;;5094795;28;20173;-70
2024/01/29 12:08:17;;;;;;;6.38;5.78;;;14.00;1.00;;;;;;5093339;28;20177;-69
2024/01/29 12:10:45;;;;;;;7.55;5.70;;;14.10;1.00;;;;;;5094391;28;20204;-69
2024/01/29 12:13:21;;;;;;;6.20;5.60;;;14.10;1.00;;;;;;5094438;28;20172;-69
2024/01/29 12:15:52;;;;;;;6.20;5.57;;;14.00;1.00;;;;;;5094677;28;20168;-70
2024/01/29 12:18:19;;;;;;;7.15;5.35;;;13.90;1.00;;;;;;5094151;28;20248;-69
2024/01/29 12:20:47;;;;;;;6.28;5.53;;;13.80;99.90;;;;;;5092992;28;20228;-70
2024/01/29 12:23:16;;;;;;;5.82;5.20;;;13.80;99.90;;;;;;5093209;28;20244;-69
2024/01/29 12:25:46;;;;;;;5.70;5.10;;;13.70;99.90;;;;;;5094584;28;20177;-69
2024/01/29 12:28:17;;;;;;;7.45;5.57;;;13.90;99.90;;;;;;5094115;28;20176;-69
2024/01/29 12:30:52;;;;;;;6.40;5.78;;;13.90;99.90;;;;;;5094217;28;20718;-69
2024/01/29 12:33:20;;;;;;;6.72;5.70;;;14.00;99.90;;;;;;5093871;28;20161;-69
2024/01/29 12:35:46;;;;;;;8.13;5.25;;;14.10;1.00;;;;;;5092726;28;20181;-70
2024/01/29 12:38:13;;;;;;;7.50;5.65;;;14.20;30.90;;;;;;5092633;28;20173;-70
2024/01/29 12:40:39;;;;;;;7.03;5.65;;;14.20;1.00;;;;;;5093837;28;20197;-70
2024/01/29 12:43:06;;;;;;;6.93;5.90;;;14.10;1.00;;;;;;5093885;28;20216;-70
2024/01/29 12:45:34;;;;;;;6.15;5.47;;;14.00;1.00;;;;;;5093801;28;20181;-69
2024/01/29 12:48:10;;;;;;;7.35;6.13;;;13.90;99.90;;;;;;5093498;28;20169;-70
2024/01/29 12:50:41;;;;;;;5.90;5.13;;;13.90;1.00;;;;;;5093605;28;20205;-70
2024/01/29 12:53:12;;;;;;;6.35;5.75;;;13.90;99.90;;;;;;5093890;28;20181;-70
2024/01/29 12:55:38;;;;;;;7.75;5.72;;;13.80;1.00;;;;;;5094066;28;20634;-69
2024/01/29 12:58:05;;;;;;;7.93;5.78;;;13.70;1.00;;;;;;5093897;28;20259;-70